Time;durP1;ratioP1;P1;durP2;ratioP2;P2;SDS_P1;SDS_P2;PMS_P1;PMS_P2;Temp;Humidity;BMP_temperature;BMP_pressure;BME280_temperature;BME280_humidity;BME280_pressure;Samples;Min_cycle;Max_cycle;Signal;HPM_P1;HPM_P2
2022/07/01 07:58:59;;;;;;;5.40;2.22;;;;;;;16.51;71.14;101557.16;5279955;27;20425;-65
2022/07/01 08:01:31;;;;;;;4.05;2.22;;;;;;;16.56;69.68;101554.22;5280127;28;20033;-64
2022/07/01 08:04:02;;;;;;;3.55;1.88;;;;;;;16.82;68.90;101551.75;5278843;28;20100;-65
2022/07/01 08:06:33;;;;;;;3.33;1.55;;;;;;;16.83;65.16;101559.00;5274918;28;20021;-65
2022/07/01 08:09:06;;;;;;;2.90;1.30;;;;;;;16.85;65.19;101567.94;5285537;28;20044;-66
2022/07/01 08:11:37;;;;;;;3.22;1.77;;;;;;;16.97;64.61;101564.56;5279219;28;20033;-65
2022/07/01 08:14:08;;;;;;;4.80;1.77;;;;;;;17.22;64.49;101570.72;5288643;28;20360;-65
2022/07/01 08:16:40;;;;;;;2.25;1.42;;;;;;;17.36;65.84;101577.94;5282647;28;20120;-65
2022/07/01 08:19:11;;;;;;;2.30;1.45;;;;;;;17.24;64.28;101577.66;5294960;28;20404;-65
2022/07/01 08:21:42;;;;;;;3.65;1.70;;;;;;;17.45;64.81;101583.59;5282589;28;20020;-64
2022/07/01 08:24:14;;;;;;;4.45;1.30;;;;;;;17.29;65.17;101587.94;5279227;28;20045;-64
2022/07/01 08:26:45;;;;;;;3.67;1.77;;;;;;;17.45;64.69;101591.19;5292313;28;20494;-64
2022/07/01 08:29:20;;;;;;;5.25;1.52;;;;;;;17.69;63.23;101597.31;5281215;28;20020;-64
2022/07/01 08:31:51;;;;;;;4.93;1.65;;;;;;;17.72;61.23;101591.06;5291158;28;20021;-64
2022/07/01 08:34:22;;;;;;;2.65;1.67;;;;;;;17.81;61.36;101589.16;5281414;28;20024;-64
2022/07/01 08:36:54;;;;;;;3.08;1.73;;;;;;;17.69;60.82;101597.31;5289658;28;20152;-64
2022/07/01 08:39:25;;;;;;;4.80;2.20;;;;;;;17.80;60.77;101593.09;5277259;28;20056;-64
2022/07/01 08:41:57;;;;;;;21.88;19.52;;;;;;;17.75;60.20;101595.19;5275535;28;20127;-64
2022/07/01 08:44:28;;;;;;;8.50;3.33;;;;;;;17.86;60.17;101609.81;5298557;28;20099;-65
2022/07/01 08:46:59;;;;;;;4.97;2.75;;;;;;;18.00;61.12;101599.34;5257707;28;20113;-65
2022/07/01 08:49:31;;;;;;;5.35;1.65;;;;;;;18.00;61.00;101616.19;5257149;28;20036;-65
2022/07/01 08:52:02;;;;;;;3.03;1.20;;;;;;;18.27;60.23;101609.53;5272114;28;20031;-65
2022/07/01 08:54:34;;;;;;;6.07;2.08;;;;;;;18.06;59.76;101606.47;5276907;28;20029;-64
2022/07/01 08:57:05;;;;;;;2.85;1.67;;;;;;;18.12;60.40;101622.00;5286081;28;20056;-64
2022/07/01 08:59:36;;;;;;;3.95;1.45;;;;;;;18.43;59.92;101633.22;5286780;28;20098;-65
2022/07/01 09:02:08;;;;;;;4.35;1.30;;;;;;;18.28;59.16;101635.63;5271605;28;20025;-65
2022/07/01 09:04:39;;;;;;;3.95;1.70;;;;;;;18.38;58.97;101629.72;5257367;28;20423;-64
2022/07/01 09:07:10;;;;;;;3.40;2.08;;;;;;;18.32;58.84;101625.41;5282169;28;20456;-65
2022/07/01 09:09:42;;;;;;;5.30;2.03;;;;;;;18.37;60.00;101630.88;5288243;28;20032;-65
2022/07/01 09:12:16;;;;;;;4.15;1.67;;;;;;;18.39;59.33;101631.41;5275670;28;20022;-66
2022/07/01 09:14:47;;;;;;;6.85;2.13;;;;;;;18.42;59.40;101628.75;5264152;28;20017;-65
2022/07/01 09:17:20;;;;;;;3.70;1.80;;;;;;;18.48;59.70;101621.00;5264354;28;20112;-64
2022/07/01 09:19:51;;;;;;;2.97;2.25;;;;;;;18.15;58.91;101627.00;5264460;28;20060;-65
2022/07/01 09:22:23;;;;;;;3.30;1.60;;;;;;;17.99;56.43;101632.16;5284986;28;20044;-65
2022/07/01 09:24:54;;;;;;;4.82;1.50;;;;;;;17.97;57.52;101633.63;5282789;28;20077;-65
2022/07/01 09:27:26;;;;;;;4.57;1.83;;;;;;;18.05;57.55;101618.84;5280505;28;20060;-65
2022/07/01 09:29:58;;;;;;;3.53;1.77;;;;;;;18.41;58.61;101629.09;5263511;28;20025;-65
2022/07/01 09:32:29;;;;;;;2.40;1.45;;;;;;;18.36;56.65;101632.03;5264254;28;20037;-65
2022/07/01 09:35:00;;;;;;;8.90;4.53;;;;;;;18.26;55.50;101633.16;5261067;28;20380;-62
2022/07/01 09:37:34;;;;;;;2.80;1.95;;;;;;;18.57;57.55;101640.72;5242954;28;20033;-64
2022/07/01 09:40:06;;;;;;;3.45;1.40;;;;;;;18.51;57.31;101639.19;5243629;28;20025;-63
2022/07/01 09:42:45;;;;;;;4.45;1.70;;;;;;;18.59;56.74;101635.59;5262545;28;20017;-63
2022/07/01 09:45:19;;;;;;;3.85;1.58;;;;;;;18.84;55.76;101637.69;5281792;28;20468;-63
2022/07/01 09:47:51;;;;;;;7.30;1.73;;;;;;;18.68;55.58;101634.47;5263665;28;20047;-63
2022/07/01 09:50:22;;;;;;;4.60;1.83;;;;;;;18.63;55.12;101630.97;5263601;28;20055;-63
2022/07/01 09:52:54;;;;;;;5.53;1.80;;;;;;;18.88;55.69;101644.31;5259790;28;20389;-63
2022/07/01 09:55:26;;;;;;;3.75;1.70;;;;;;;18.74;56.30;101646.41;5264332;28;20036;-64
2022/07/01 09:57:57;;;;;;;2.65;1.60;;;;;;;18.68;56.38;101647.69;5263040;28;20127;-64
2022/07/01 10:00:32;;;;;;;2.92;1.50;;;;;;;18.61;56.79;101648.19;5264496;28;20116;-63
2022/07/01 10:03:05;;;;;;;5.63;3.83;;;;;;;18.64;54.76;101639.09;5272353;28;20025;-63
2022/07/01 10:05:41;;;;;;;2.70;1.23;;;;;;;18.77;56.00;101651.41;5268108;28;20295;-64
2022/07/01 10:08:37;;;;;;;3.25;1.48;;;;;;;18.85;55.21;101639.34;5254300;28;20028;-63
2022/07/01 10:11:24;;;;;;;3.38;1.20;;;;;;;18.91;54.77;101654.06;5249409;28;20424;-64
2022/07/01 10:13:58;;;;;;;4.03;1.75;;;;;;;18.79;54.63;101662.28;5241472;28;20034;-63
2022/07/01 10:16:31;;;;;;;4.68;1.80;;;;;;;18.96;55.48;101665.16;5241994;28;20022;-64
2022/07/01 10:19:20;;;;;;;3.53;1.50;;;;;;;19.22;54.88;101658.75;5241734;28;20036;-63
2022/07/01 10:21:57;;;;;;;6.03;1.70;;;;;;;19.14;54.17;101656.75;5241376;28;20029;-65
2022/07/01 10:24:29;;;;;;;5.65;1.20;;;;;;;19.20;53.60;101667.53;5252724;28;20031;-63
2022/07/01 10:27:00;;;;;;;5.18;1.70;;;;;;;19.02;51.75;101672.28;5273065;28;20029;-63
2022/07/01 10:29:34;;;;;;;3.03;1.40;;;;;;;19.06;53.06;101680.88;5242447;28;20032;-62
2022/07/01 10:32:25;;;;;;;4.45;2.25;;;;;;;19.05;54.06;101682.88;5251429;28;20028;-63
2022/07/01 10:35:06;;;;;;;4.78;1.75;;;;;;;19.34;54.16;101684.25;5268879;28;20086;-62
2022/07/01 10:38:00;;;;;;;5.82;2.72;;;;;;;19.47;53.66;101677.63;5267859;28;20028;-62
2022/07/01 10:40:46;;;;;;;2.67;1.15;;;;;;;19.42;53.58;101679.78;5281560;28;20043;-62
2022/07/01 10:43:34;;;;;;;3.80;1.20;;;;;;;19.38;52.93;101690.03;5283584;28;20027;-63
2022/07/01 10:46:06;;;;;;;3.75;1.40;;;;;;;19.40;52.54;101674.47;5241515;28;20032;-63
2022/07/01 10:48:37;;;;;;;3.40;1.20;;;;;;;19.26;52.86;101683.09;5240539;28;20021;-63
2022/07/01 10:51:09;;;;;;;2.17;1.73;;;;;;;19.27;52.82;101670.66;5254639;28;20027;-63
2022/07/01 10:53:47;;;;;;;5.80;4.88;;;;;;;19.38;53.55;101661.91;5275396;28;20043;-63
2022/07/01 10:56:38;;;;;;;3.97;1.33;;;;;;;19.60;53.31;101661.75;5261514;28;20037;-63
2022/07/01 10:59:18;;;;;;;3.83;1.25;;;;;;;19.68;52.44;101666.56;5262552;28;20037;-63
2022/07/01 11:01:49;;;;;;;4.03;1.05;;;;;;;19.53;51.37;101670.69;5269823;28;20056;-63
2022/07/01 11:04:21;;;;;;;5.78;1.20;;;;;;;19.51;51.66;101673.00;5281204;28;20082;-63
2022/07/01 11:06:52;;;;;;;5.03;1.40;;;;;;;19.58;51.30;101663.25;5269908;28;20060;-63
2022/07/01 11:09:23;;;;;;;4.13;1.25;;;;;;;19.61;51.10;101662.56;5242248;28;20037;-63
2022/07/01 11:11:57;;;;;;;4.40;1.45;;;;;;;19.55;50.75;101670.34;5262177;28;20036;-64
2022/07/01 11:14:33;;;;;;;2.85;1.00;;;;;;;19.48;52.03;101655.94;5261848;28;20053;-63
2022/07/01 11:17:06;;;;;;;2.78;1.40;;;;;;;19.55;51.74;101650.66;5261611;28;20092;-63
2022/07/01 11:19:37;;;;;;;3.00;0.93;;;;;;;19.75;52.42;101652.84;5269295;28;20124;-63
2022/07/01 11:22:08;;;;;;;5.80;1.77;;;;;;;19.94;52.42;101652.50;5263441;28;20100;-63
2022/07/01 11:24:39;;;;;;;3.35;1.30;;;;;;;19.95;51.83;101642.88;5278304;28;20040;-63
2022/07/01 11:27:11;;;;;;;3.70;1.33;;;;;;;19.78;51.47;101651.34;5280451;28;20361;-63
2022/07/01 11:29:42;;;;;;;5.35;2.80;;;;;;;19.62;52.58;101634.13;5261462;28;20037;-65
2022/07/01 11:32:24;;;;;;;4.40;2.53;;;;;;;19.80;53.74;101643.41;5278948;28;20055;-64
2022/07/01 11:34:59;;;;;;;3.15;1.40;;;;;;;19.78;52.84;101642.91;5274099;28;20026;-65
2022/07/01 11:40:21;;;;;;;4.15;1.35;;;;;;;19.92;50.40;101646.38;5269214;28;19912;-64
2022/07/01 11:42:52;;;;;;;5.57;1.20;;;;;;;20.13;51.26;101642.84;5280899;28;20364;-64
2022/07/01 11:45:25;;;;;;;3.33;1.23;;;;;;;20.26;50.97;101638.97;5270505;28;20387;-64
2022/07/01 11:47:56;;;;;;;3.38;1.98;;;;;;;20.28;50.39;101630.22;5262161;28;20380;-64
2022/07/01 11:50:28;;;;;;;2.20;1.13;;;;;;;20.28;49.89;101638.66;5260796;28;20033;-64
2022/07/01 11:52:59;;;;;;;3.92;1.38;;;;;;;19.97;50.22;101640.56;5249321;28;20099;-65
2022/07/01 11:55:31;;;;;;;3.65;1.15;;;;;;;20.42;51.23;101647.69;5241016;28;20017;-63
2022/07/01 11:58:02;;;;;;;4.72;1.30;;;;;;;20.40;51.01;101639.59;5258001;28;20254;-65
2022/07/01 12:00:33;;;;;;;4.25;1.48;;;;;;;20.53;51.66;101639.69;5281805;28;20419;-65
2022/07/01 12:03:07;;;;;;;3.85;1.25;;;;;;;20.41;50.00;101643.25;5265094;28;20044;-65
2022/07/01 12:05:39;;;;;;;3.75;1.90;;;;;;;20.36;49.66;101647.06;5260533;28;20032;-64
2022/07/01 12:08:10;;;;;;;3.42;1.27;;;;;;;20.10;49.63;101635.06;5244391;28;20026;-65
2022/07/01 12:10:41;;;;;;;20.38;3.13;;;;;;;20.06;50.54;101640.53;5253788;28;20111;-65
2022/07/01 12:13:23;;;;;;;3.30;1.33;;;;;;;20.17;51.59;101652.25;5260951;28;20021;-65
2022/07/01 12:16:06;;;;;;;4.05;1.63;;;;;;;20.39;52.01;101637.94;5261123;28;20392;-64
2022/07/01 12:18:38;;;;;;;4.15;1.50;;;;;;;20.64;52.12;101646.66;5264097;28;20037;-65
2022/07/01 12:21:09;;;;;;;6.40;2.97;;;;;;;20.39;50.54;101656.84;5261506;28;20017;-65
2022/07/01 12:23:41;;;;;;;11.60;7.30;;;;;;;20.02;50.65;101642.38;5261834;28;20025;-66
2022/07/01 12:26:12;;;;;;;4.13;1.20;;;;;;;20.34;52.00;101652.19;5254334;28;20070;-66
2022/07/01 12:28:46;;;;;;;4.35;1.20;;;;;;;20.60;50.24;101651.31;5279934;28;20028;-66
2022/07/01 12:31:17;;;;;;;4.10;1.40;;;;;;;20.82;49.75;101647.38;5263826;28;20028;-67
2022/07/01 12:33:53;;;;;;;2.90;1.60;;;;;;;20.85;49.58;101641.88;5260673;28;20036;-66
2022/07/01 12:36:24;;;;;;;4.70;1.38;;;;;;;20.82;49.75;101644.56;5260829;28;20079;-66
2022/07/01 12:39:08;;;;;;;3.95;1.27;;;;;;;21.01;50.22;101653.41;5258950;28;20056;-66
2022/07/01 12:41:40;;;;;;;3.75;1.48;;;;;;;21.17;50.18;101652.81;5272424;28;20085;-66
2022/07/01 12:44:25;;;;;;;2.67;1.40;;;;;;;21.15;50.00;101650.34;5248027;28;20096;-66
2022/07/01 12:46:56;;;;;;;3.25;2.22;;;;;;;21.07;50.05;101659.69;5253771;28;20029;-66
2022/07/01 12:49:28;;;;;;;3.47;1.17;;;;;;;21.26;49.56;101654.38;5264885;28;20368;-66
2022/07/01 12:51:59;;;;;;;2.63;1.20;;;;;;;21.39;50.33;101651.69;5264968;28;20050;-66
2022/07/01 12:54:32;;;;;;;2.55;1.20;;;;;;;21.45;49.58;101653.13;5264095;28;20128;-65
2022/07/01 12:57:06;;;;;;;3.20;1.67;;;;;;;21.61;49.37;101642.88;5264541;28;20392;-66
2022/07/01 12:59:37;;;;;;;3.03;1.20;;;;;;;21.85;49.94;101650.59;5262981;28;20039;-66
2022/07/01 13:02:09;;;;;;;1.73;0.95;;;;;;;21.69;47.04;101652.41;5242995;28;20037;-66
2022/07/01 13:04:40;;;;;;;5.20;1.50;;;;;;;21.74;45.74;101642.91;5243810;28;20132;-66
2022/07/01 13:07:12;;;;;;;3.55;1.10;;;;;;;21.88;47.82;101649.06;5243599;28;20021;-66
2022/07/01 13:09:46;;;;;;;4.65;1.83;;;;;;;21.37;46.16;101645.50;5257567;28;20028;-66
2022/07/01 13:12:17;;;;;;;5.13;1.20;;;;;;;21.31;47.06;101635.63;5264156;28;20464;-66
2022/07/01 13:14:56;;;;;;;6.53;1.20;;;;;;;21.62;48.66;101647.31;5272337;28;20035;-66
2022/07/01 13:17:28;;;;;;;4.25;1.30;;;;;;;21.70;47.63;101648.41;5269316;28;20140;-66
2022/07/01 13:19:59;;;;;;;6.80;4.38;;;;;;;21.76;46.59;101647.03;5269416;28;20115;-67
2022/07/01 13:22:31;;;;;;;1.75;1.02;;;;;;;21.79;46.58;101648.34;5262960;28;20438;-66
2022/07/01 13:25:03;;;;;;;4.35;1.58;;;;;;;21.92;46.17;101650.03;5263401;28;20017;-66
2022/07/01 13:27:34;;;;;;;3.95;1.30;;;;;;;22.14;46.15;101658.13;5273274;28;20038;-66
2022/07/01 13:30:07;;;;;;;3.40;1.40;;;;;;;21.90;45.33;101658.03;5265089;28;20033;-67
2022/07/01 13:32:39;;;;;;;6.68;4.75;;;;;;;21.78;45.28;101658.81;5264069;28;20024;-68
2022/07/01 13:35:12;;;;;;;1.90;1.10;;;;;;;21.67;46.37;101657.59;5260119;28;20035;-67
2022/07/01 13:37:43;;;;;;;5.47;1.70;;;;;;;21.73;45.92;101652.53;5260991;28;20037;-67
2022/07/01 13:40:15;;;;;;;5.65;4.40;;;;;;;22.01;46.27;101656.44;5243545;28;20109;-67
2022/07/01 13:42:46;;;;;;;38.10;33.15;;;;;;;22.05;44.66;101651.72;5242613;28;20108;-67
2022/07/01 13:45:18;;;;;;;2.67;1.50;;;;;;;21.99;45.31;101661.59;5261221;28;20025;-66
2022/07/01 13:47:49;;;;;;;4.60;1.55;;;;;;;22.13;45.92;101666.94;5263175;28;20029;-66
2022/07/01 13:50:20;;;;;;;1.73;1.30;;;;;;;21.99;44.99;101663.59;5263402;28;20465;-66
2022/07/01 13:52:52;;;;;;;2.78;1.30;;;;;;;21.97;45.48;101671.59;5243824;28;20045;-67
2022/07/01 13:55:23;;;;;;;3.33;1.35;;;;;;;21.80;45.32;101670.56;5242803;28;20096;-67
2022/07/01 13:57:54;;;;;;;15.35;12.02;;;;;;;21.79;45.56;101673.75;5241606;28;20153;-66
2022/07/01 14:00:26;;;;;;;4.28;2.10;;;;;;;21.59;45.37;101664.13;5245425;28;20048;-69
2022/07/01 14:02:57;;;;;;;4.45;2.30;;;;;;;21.25;43.62;101669.66;5262989;28;20039;-66
2022/07/01 14:05:28;;;;;;;3.17;1.38;;;;;;;21.36;44.65;101677.72;5264730;28;20538;-67
2022/07/01 14:07:59;;;;;;;3.47;1.20;;;;;;;21.38;45.12;101676.25;5261746;28;20028;-67
2022/07/01 14:10:33;;;;;;;5.28;1.42;;;;;;;21.24;44.77;101679.31;5242473;28;20029;-67
2022/07/01 14:13:04;;;;;;;5.18;1.95;;;;;;;21.18;44.17;101677.84;5262767;28;20402;-68
2022/07/01 14:15:36;;;;;;;3.22;1.27;;;;;;;21.38;46.50;101684.72;5284167;28;20028;-67
2022/07/01 14:18:10;;;;;;;6.35;3.45;;;;;;;20.96;44.50;101692.25;5276919;28;20035;-67
2022/07/01 14:20:41;;;;;;;4.43;1.52;;;;;;;20.94;45.54;101692.59;5273153;28;20047;-67
2022/07/01 14:23:13;;;;;;;3.55;1.27;;;;;;;21.14;46.39;101693.81;5280708;28;20029;-67
2022/07/01 14:25:45;;;;;;;5.00;1.42;;;;;;;20.83;45.13;101694.94;5261260;28;20029;-67
2022/07/01 14:28:16;;;;;;;3.13;1.13;;;;;;;21.04;46.04;101697.03;5263069;28;20020;-67
2022/07/01 14:30:50;;;;;;;7.80;2.45;;;;;;;20.94;46.11;101700.22;5262817;28;20017;-67
2022/07/01 14:33:22;;;;;;;2.95;1.42;;;;;;;21.01;46.77;101700.50;5261910;28;20059;-67
2022/07/01 14:35:53;;;;;;;6.40;1.30;;;;;;;21.16;46.92;101702.75;5262213;28;20414;-67
2022/07/01 14:38:24;;;;;;;2.90;1.27;;;;;;;21.09;46.13;101696.84;5262445;28;20487;-68
2022/07/01 14:40:56;;;;;;;5.22;1.20;;;;;;;21.37;45.77;101704.75;5273304;28;20464;-67
2022/07/01 14:43:31;;;;;;;6.63;4.00;;;;;;;21.36;46.21;101697.47;5274031;28;20025;-68
2022/07/01 14:46:08;;;;;;;2.28;1.60;;;;;;;21.35;45.40;101712.78;5274524;28;20036;-67
2022/07/01 14:48:39;;;;;;;1.95;1.10;;;;;;;21.16;44.90;101701.91;5264603;28;20460;-68
2022/07/01 14:51:11;;;;;;;4.10;1.63;;;;;;;21.14;46.68;101713.56;5262355;28;20032;-66
2022/07/01 14:53:42;;;;;;;7.30;1.88;;;;;;;20.82;48.16;101729.13;5261871;28;20025;-68
2022/07/01 14:56:13;;;;;;;4.28;1.55;;;;;;;20.64;50.74;101736.84;5262146;28;20043;-68
2022/07/01 14:58:45;;;;;;;3.88;2.13;;;;;;;20.32;52.67;101741.84;5259734;28;20492;-68
2022/07/01 15:01:17;;;;;;;6.88;2.15;;;;;;;20.02;53.70;101756.94;5267203;28;20036;-67
2022/07/01 15:03:48;;;;;;;5.88;1.60;;;;;;;20.13;54.57;101755.47;5268110;28;20033;-66
2022/07/01 15:06:19;;;;;;;4.00;1.60;;;;;;;19.76;54.39;101763.41;5261770;28;20021;-66
2022/07/01 15:08:51;;;;;;;10.93;8.50;;;;;;;19.74;55.09;101765.75;5255753;28;20094;-66
2022/07/01 15:11:22;;;;;;;11.55;6.32;;;;;;;19.77;55.34;101765.09;5262018;28;20105;-67
2022/07/01 15:13:53;;;;;;;5.40;2.10;;;;;;;19.61;55.20;101761.91;5275623;28;20024;-67
2022/07/01 15:16:25;;;;;;;3.80;1.63;;;;;;;19.63;55.29;101764.38;5265878;28;20044;-67
2022/07/01 15:18:57;;;;;;;5.53;2.25;;;;;;;19.66;55.91;101758.94;5241607;28;20036;-67
2022/07/01 15:21:28;;;;;;;27.15;24.25;;;;;;;20.02;55.55;101762.59;5240774;28;20052;-66
2022/07/01 15:23:59;;;;;;;5.22;3.97;;;;;;;20.24;54.61;101768.03;5241117;28;20021;-67
2022/07/01 15:26:31;;;;;;;6.05;2.00;;;;;;;20.04;55.32;101766.72;5252756;28;20396;-67
2022/07/01 15:29:02;;;;;;;5.00;1.60;;;;;;;20.37;54.19;101764.19;5262684;28;20590;-68
2022/07/01 15:31:33;;;;;;;3.85;2.00;;;;;;;19.90;54.72;101772.53;5261928;28;20035;-67
2022/07/01 15:34:05;;;;;;;4.55;1.50;;;;;;;19.95;55.30;101777.19;5257616;28;20123;-68
2022/07/01 15:36:37;;;;;;;6.63;2.58;;;;;;;19.93;55.39;101780.31;5281470;28;20482;-68
2022/07/01 15:39:08;;;;;;;5.55;1.83;;;;;;;19.52;56.17;101778.75;5277248;28;20432;-67
2022/07/01 15:41:41;;;;;;;6.22;4.97;;;;;;;19.38;56.68;101780.03;5261058;28;20069;-68
2022/07/01 15:44:13;;;;;;;4.70;2.17;;;;;;;19.72;56.97;101777.31;5260139;28;20029;-67
2022/07/01 15:46:44;;;;;;;6.55;2.13;;;;;;;19.92;55.96;101777.84;5261281;28;20095;-67
2022/07/01 15:49:15;;;;;;;4.97;2.50;;;;;;;19.66;55.98;101770.19;5264991;28;20456;-66
2022/07/01 15:51:47;;;;;;;2.88;1.60;;;;;;;19.76;55.68;101772.72;5270583;28;20490;-67
2022/07/01 15:54:18;;;;;;;4.68;1.90;;;;;;;19.78;55.80;101778.00;5282034;28;20035;-67
2022/07/01 15:56:49;;;;;;;4.53;1.80;;;;;;;19.48;55.81;101780.56;5261869;28;20495;-67
2022/07/01 15:59:20;;;;;;;5.88;1.67;;;;;;;19.43;56.79;101772.28;5262645;28;20029;-67
2022/07/01 16:01:52;;;;;;;3.55;1.40;;;;;;;19.27;56.95;101776.69;5259536;28;20025;-67
2022/07/01 16:04:33;;;;;;;3.97;1.67;;;;;;;19.38;56.97;101780.88;5262878;28;20021;-67
2022/07/01 16:07:05;;;;;;;4.28;1.73;;;;;;;19.20;56.89;101779.16;5254456;28;20036;-68
2022/07/01 16:09:40;;;;;;;6.30;1.58;;;;;;;19.53;57.21;101779.56;5256149;28;20025;-67
2022/07/01 16:12:12;;;;;;;;;;;;;;;19.73;56.43;101780.97;5263440;28;20016;-67
2022/07/01 16:14:44;;;;;;;3.78;1.38;;;;;;;19.88;56.07;101774.03;5271701;28;19942;-67
2022/07/01 16:17:16;;;;;;;3.28;1.15;;;;;;;19.84;55.18;101770.19;5272168;28;20041;-67
2022/07/01 16:19:50;;;;;;;2.97;1.55;;;;;;;19.78;55.90;101775.16;5267412;28;20111;-68
2022/07/01 16:22:24;;;;;;;8.38;2.33;;;;;;;20.24;54.98;101779.31;5286643;28;20107;-67
2022/07/01 16:24:56;;;;;;;3.85;2.15;;;;;;;20.35;54.30;101785.41;5268918;28;20388;-67
2022/07/01 16:27:29;;;;;;;4.68;1.90;;;;;;;20.36;53.62;101782.28;5264375;28;20074;-67
2022/07/01 16:30:02;;;;;;;2.67;1.70;;;;;;;20.52;53.39;101784.56;5265315;28;20025;-67
2022/07/01 16:32:34;;;;;;;3.63;1.42;;;;;;;20.48;52.90;101786.38;5268304;28;20100;-67
2022/07/01 16:35:06;;;;;;;3.75;1.30;;;;;;;20.31;52.17;101788.09;5271719;28;20037;-67
2022/07/01 16:37:41;;;;;;;3.40;1.30;;;;;;;20.27;52.21;101783.44;5274249;28;20471;-67
2022/07/01 16:40:15;;;;;;;6.63;1.50;;;;;;;20.27;52.98;101789.06;5262288;28;20385;-67
2022/07/01 16:42:49;;;;;;;4.07;2.53;;;;;;;20.44;52.30;101782.59;5259875;28;20041;-68
2022/07/01 16:45:33;;;;;;;3.80;1.40;;;;;;;20.40;51.58;101779.59;5267810;28;20025;-66
2022/07/01 16:48:05;;;;;;;1.80;1.10;;;;;;;20.57;52.11;101782.44;5266118;28;20028;-67
2022/07/01 16:50:58;;;;;;;3.60;1.75;;;;;;;20.35;52.52;101788.22;5264083;28;20490;-66
2022/07/01 16:53:38;;;;;;;5.15;1.92;;;;;;;20.37;52.56;101789.56;5264267;28;20025;-67
2022/07/01 16:56:18;;;;;;;5.78;1.48;;;;;;;20.36;52.53;101787.09;5264881;28;20116;-67
2022/07/01 16:58:58;;;;;;;2.90;1.60;;;;;;;20.57;53.03;101784.44;5260277;28;20045;-67
2022/07/01 17:01:30;;;;;;;6.80;1.60;;;;;;;20.56;52.44;101785.59;5264207;28;20049;-66
2022/07/01 17:04:02;;;;;;;2.80;1.60;;;;;;;20.46;53.06;101791.56;5267483;28;20028;-66
2022/07/01 17:06:34;;;;;;;22.50;18.70;;;;;;;20.39;53.39;101792.06;5269059;28;20029;-66
2022/07/01 17:09:07;;;;;;;11.52;9.38;;;;;;;20.23;53.17;101796.56;5263701;28;20095;-66
2022/07/01 17:11:38;;;;;;;12.80;9.55;;;;;;;19.96;53.22;101788.09;5254429;28;20024;-65
2022/07/01 17:14:11;;;;;;;57.47;51.10;;;;;;;20.03;52.70;101798.03;5263698;28;20021;-66
2022/07/01 17:16:43;;;;;;;5.15;3.80;;;;;;;20.12;53.35;101785.63;5279564;28;20070;-66
2022/07/01 17:19:15;;;;;;;3.95;1.85;;;;;;;20.26;52.88;101798.69;5282794;28;20033;-66
2022/07/01 17:21:53;;;;;;;4.32;1.38;;;;;;;20.10;53.04;101801.19;5282640;28;20082;-66
2022/07/01 17:24:25;;;;;;;3.42;1.38;;;;;;;19.86;53.08;101791.22;5245780;28;20082;-65
2022/07/01 17:27:31;;;;;;;5.07;2.55;;;;;;;20.08;54.14;101798.69;5268369;28;20036;-65
2022/07/01 17:30:12;;;;;;;2.50;1.15;;;;;;;20.08;53.27;101803.50;5283114;28;20050;-63
